createdAt,value
2019-05-22T00:00:17.708Z,35.90
2019-05-22T00:02:47.817Z,34.27
2019-05-22T00:05:31.892Z,37.03
2019-05-22T00:08:02.888Z,37.40
2019-05-22T00:10:34.214Z,37.73
2019-05-22T00:13:05.780Z,37.07
2019-05-22T00:15:38.574Z,35.83
2019-05-22T00:18:10.129Z,35.23
2019-05-22T00:20:40.462Z,37.80
2019-05-22T00:23:10.508Z,37.00
2019-05-22T00:25:40.617Z,34.93
2019-05-22T00:28:10.661Z,36.80
2019-05-22T00:30:41.992Z,38.27
2019-05-22T00:33:14.086Z,38.47
2019-05-22T00:35:45.404Z,39.33
2019-05-22T00:38:16.394Z,38.30
2019-05-22T00:40:47.621Z,36.07
2019-05-22T00:43:20.388Z,36.13
2019-05-22T00:45:52.109Z,39.63
2019-05-22T00:48:25.727Z,39.30
2019-05-22T00:50:59.863Z,42.70
2019-05-22T00:53:43.954Z,40.73
2019-05-22T00:56:14.057Z,41.73
2019-05-22T00:58:44.104Z,38.73
2019-05-22T01:01:23.321Z,40.03
2019-05-22T01:03:53.365Z,36.87
2019-05-22T01:06:23.388Z,35.53
2019-05-22T01:08:53.461Z,35.33
2019-05-22T01:11:25.156Z,33.03
2019-05-22T01:13:55.769Z,38.87
2019-05-22T01:16:25.802Z,33.40
2019-05-22T01:18:54.352Z,36.43
2019-05-22T01:21:24.452Z,37.27
2019-05-22T01:23:55.824Z,36.43
2019-05-22T01:26:26.011Z,35.83
2019-05-22T01:28:56.572Z,34.53
2019-05-22T01:31:33.185Z,36.33
2019-05-22T01:34:05.931Z,36.07
2019-05-22T01:36:37.509Z,34.83
2019-05-22T01:39:19.461Z,38.10
2019-05-22T01:41:51.005Z,37.73
2019-05-22T01:44:21.038Z,38.50
2019-05-22T01:46:52.097Z,39.60
2019-05-22T01:49:22.034Z,41.37
2019-05-22T01:51:51.381Z,40.33
2019-05-22T01:54:21.725Z,38.70
2019-05-22T01:56:51.831Z,35.17
2019-05-22T01:59:23.671Z,29.60
2019-05-22T02:01:54.612Z,26.37
2019-05-22T02:04:24.663Z,26.23
2019-05-22T02:06:55.786Z,26.43
2019-05-22T02:09:30.581Z,26.40
2019-05-22T02:12:06.341Z,24.40
2019-05-22T02:14:34.877Z,25.40
2019-05-22T02:17:04.912Z,28.97
2019-05-22T02:19:35.085Z,27.50
2019-05-22T02:22:06.818Z,31.07
2019-05-22T02:24:36.866Z,31.83
2019-05-22T02:27:07.867Z,35.70
2019-05-22T02:29:37.885Z,34.73
2019-05-22T02:32:07.178Z,37.97
2019-05-22T02:34:35.593Z,35.93
2019-05-22T02:37:07.302Z,43.67
2019-05-22T02:39:38.458Z,43.97
2019-05-22T02:42:14.426Z,43.50
2019-05-22T02:44:46.247Z,44.97
2019-05-22T02:47:20.714Z,41.70
2019-05-22T02:49:48.617Z,39.67
2019-05-22T02:52:17.151Z,42.37
2019-05-22T02:54:47.282Z,40.43
2019-05-22T02:57:18.369Z,42.83
2019-05-22T02:59:46.788Z,38.50
2019-05-22T03:02:17.871Z,43.57
2019-05-22T03:04:56.681Z,40.17
2019-05-22T03:07:26.938Z,46.07
2019-05-22T03:09:57.181Z,43.00
2019-05-22T03:12:29.857Z,46.07
2019-05-22T03:14:58.303Z,47.77
2019-05-22T03:17:31.528Z,49.50
2019-05-22T03:20:04.538Z,46.57
2019-05-22T03:22:40.326Z,46.50
2019-05-22T03:25:14.192Z,40.93
2019-05-22T03:27:49.090Z,42.43
2019-05-22T03:30:31.346Z,46.03
2019-05-22T03:33:06.740Z,42.57
2019-05-22T03:35:46.923Z,45.40
2019-05-22T03:38:20.125Z,47.27
2019-05-22T03:40:51.117Z,40.63
2019-05-22T03:43:27.130Z,40.30
2019-05-22T03:45:58.828Z,42.57
2019-05-22T03:48:30.601Z,38.43
2019-05-22T03:51:10.099Z,38.40
2019-05-22T03:53:40.810Z,40.00
2019-05-22T03:56:10.825Z,42.07
2019-05-22T03:58:39.226Z,38.70
2019-05-22T04:01:08.125Z,41.60
2019-05-22T04:03:36.659Z,37.33
2019-05-22T04:06:06.818Z,39.43
2019-05-22T04:08:35.304Z,39.80
2019-05-22T04:11:05.376Z,36.53
2019-05-22T04:13:35.658Z,39.93
2019-05-22T04:16:06.571Z,40.07
2019-05-22T04:18:35.841Z,37.10
2019-05-22T04:21:05.191Z,36.97
2019-05-22T04:23:34.355Z,36.67
2019-05-22T04:26:06.143Z,35.90
2019-05-22T04:28:39.261Z,36.97
2019-05-22T04:31:07.656Z,38.30
2019-05-22T04:33:36.061Z,43.07
2019-05-22T04:36:10.124Z,39.37
2019-05-22T04:38:40.644Z,37.07
2019-05-22T04:41:12.160Z,41.00
2019-05-22T04:43:43.255Z,37.27
2019-05-22T04:46:14.453Z,34.97
2019-05-22T04:48:46.142Z,36.13
2019-05-22T04:51:25.497Z,35.83
2019-05-22T04:53:56.907Z,36.47
2019-05-22T04:56:28.077Z,33.07
2019-05-22T04:58:59.280Z,36.40
2019-05-22T05:01:27.751Z,35.50
2019-05-22T05:03:57.862Z,34.27
2019-05-22T05:06:28.770Z,37.10
2019-05-22T05:08:57.386Z,35.83
2019-05-22T05:11:26.117Z,36.40
2019-05-22T05:13:55.638Z,38.00
2019-05-22T05:16:24.042Z,33.43
2019-05-22T05:18:52.441Z,36.30
2019-05-22T05:21:20.908Z,35.50
2019-05-22T05:23:49.315Z,32.73
2019-05-22T05:26:17.782Z,36.17
2019-05-22T05:28:46.193Z,35.07
2019-05-22T05:31:15.534Z,32.23
2019-05-22T05:33:50.237Z,32.60
2019-05-22T05:36:20.197Z,36.33
2019-05-22T05:38:48.733Z,30.87
2019-05-22T05:41:17.900Z,34.07
2019-05-22T05:43:47.252Z,29.97
2019-05-22T05:46:17.210Z,32.83
2019-05-22T05:48:48.785Z,31.60
2019-05-22T05:51:20.278Z,31.73
2019-05-22T05:54:10.756Z,29.90
2019-05-22T05:56:43.268Z,34.97
2019-05-22T05:59:13.376Z,30.53
2019-05-22T06:01:48.381Z,29.43
2019-05-22T06:04:34.099Z,34.80
2019-05-22T06:07:00.838Z,32.43
2019-05-22T06:09:29.584Z,34.00
2019-05-22T06:12:05.185Z,37.93
2019-05-22T06:14:36.036Z,37.57
2019-05-22T06:17:39.201Z,43.43
2019-05-22T06:20:12.556Z,44.97
2019-05-22T06:22:43.882Z,51.00
2019-05-22T06:25:14.013Z,47.63
2019-05-22T06:27:44.346Z,48.43
2019-05-22T06:30:22.310Z,51.57
2019-05-22T06:33:10.668Z,44.10
2019-05-22T06:35:40.857Z,45.17
2019-05-22T06:38:39.566Z,46.13
2019-05-22T06:41:10.660Z,44.00
2019-05-22T06:43:44.806Z,42.73
2019-05-22T06:46:16.525Z,40.90
2019-05-22T06:48:46.823Z,37.10
2019-05-22T06:51:19.493Z,35.50
2019-05-22T06:53:45.421Z,33.90
2019-05-22T06:56:13.830Z,33.27
2019-05-22T06:58:43.089Z,31.17
2019-05-22T07:01:11.572Z,35.03
2019-05-22T07:03:40.108Z,31.63
2019-05-22T07:06:08.573Z,31.67
2019-05-22T07:08:38.605Z,33.17
2019-05-22T07:11:10.494Z,32.73
2019-05-22T07:13:38.968Z,36.97
2019-05-22T07:16:09.129Z,38.47
2019-05-22T07:18:37.527Z,38.63
2019-05-22T07:21:08.447Z,32.23
2019-05-22T07:23:37.048Z,35.37
2019-05-22T07:26:06.228Z,29.97
2019-05-22T07:28:38.127Z,30.07
2019-05-22T07:31:09.140Z,33.63
2019-05-22T07:33:38.394Z,28.93
2019-05-22T07:36:12.075Z,30.10
2019-05-22T07:38:38.699Z,29.97
2019-05-22T07:41:28.031Z,28.17
2019-05-22T07:43:56.568Z,31.90
2019-05-22T07:46:25.360Z,32.30
2019-05-22T07:48:55.081Z,31.87
2019-05-22T07:51:25.185Z,31.83
2019-05-22T07:53:54.361Z,35.23
2019-05-22T07:56:25.479Z,34.53
2019-05-22T07:58:58.930Z,34.83
2019-05-22T08:01:27.678Z,32.60
2019-05-22T08:03:58.402Z,32.53
2019-05-22T08:06:27.555Z,32.47
2019-05-22T08:08:56.987Z,27.47
2019-05-22T08:11:28.301Z,31.17
2019-05-22T08:13:58.578Z,30.80
2019-05-22T08:16:30.229Z,30.53
2019-05-22T08:18:58.633Z,33.60
2019-05-22T08:21:29.049Z,34.20
2019-05-22T08:23:58.480Z,38.07
2019-05-22T08:26:28.169Z,30.97
2019-05-22T08:28:58.450Z,29.80
2019-05-22T08:31:27.867Z,26.27
2019-05-22T08:33:58.515Z,21.70
2019-05-22T08:36:28.638Z,18.67
2019-05-22T08:38:59.442Z,23.03
2019-05-22T08:41:35.102Z,16.27
2019-05-22T08:44:16.372Z,15.43
2019-05-22T08:46:37.975Z,18.73
2019-05-22T08:49:08.085Z,15.27
2019-05-22T08:51:36.497Z,16.27
2019-05-22T08:54:07.922Z,16.17
2019-05-22T08:56:41.421Z,14.90
2019-05-22T08:59:19.573Z,14.17
2019-05-22T09:01:43.401Z,13.63
2019-05-22T09:04:13.748Z,14.27
2019-05-22T09:06:43.738Z,13.53
2019-05-22T09:09:12.224Z,11.73
2019-05-22T09:11:40.682Z,13.75
2019-05-22T09:14:09.152Z,12.63
2019-05-22T09:16:37.543Z,9.60
2019-05-22T09:19:07.982Z,9.15
2019-05-22T09:21:40.514Z,10.55
2019-05-22T09:24:13.074Z,9.25
2019-05-22T09:26:43.322Z,12.23
2019-05-22T09:29:11.863Z,8.08
2019-05-22T09:31:41.818Z,7.50
2019-05-22T09:34:10.453Z,8.55
2019-05-22T09:36:38.919Z,10.55
2019-05-22T09:39:09.375Z,8.25
2019-05-22T09:41:37.799Z,10.05
2019-05-22T09:44:07.109Z,9.93
2019-05-22T09:46:35.514Z,9.53
2019-05-22T09:49:04.105Z,9.73
2019-05-22T09:51:32.642Z,8.75
2019-05-22T09:54:03.736Z,13.30
2019-05-22T09:56:32.322Z,8.80
2019-05-22T09:59:00.742Z,8.98
2019-05-22T10:01:29.199Z,9.13
2019-05-22T10:04:00.213Z,10.25
2019-05-22T10:06:28.676Z,9.58
2019-05-22T10:08:57.139Z,11.40
2019-05-22T10:11:27.011Z,10.58
2019-05-22T10:13:55.538Z,10.72
2019-05-22T10:16:24.001Z,12.05
2019-05-22T10:19:13.132Z,13.48
2019-05-22T10:21:42.386Z,10.13
2019-05-22T10:24:12.421Z,11.83
2019-05-22T10:26:41.125Z,12.15
2019-05-22T10:29:09.630Z,12.73
2019-05-22T10:31:38.104Z,13.75
2019-05-22T10:34:06.494Z,14.23
2019-05-22T10:36:34.893Z,14.35
2019-05-22T10:39:05.742Z,15.65
2019-05-22T10:41:34.785Z,15.45
2019-05-22T10:44:05.901Z,14.85
2019-05-22T10:46:35.932Z,14.10
2019-05-22T10:49:06.169Z,13.50
2019-05-22T10:51:34.633Z,13.43
2019-05-22T10:54:04.942Z,17.62
2019-05-22T10:56:34.185Z,16.93
2019-05-22T10:59:02.944Z,16.85
2019-05-22T11:01:32.308Z,16.50
2019-05-22T11:04:03.242Z,16.70
2019-05-22T11:06:31.781Z,15.70
2019-05-22T11:09:00.514Z,15.98
2019-05-22T11:11:30.765Z,15.38
2019-05-22T11:14:02.003Z,16.02
2019-05-22T11:16:32.233Z,17.10
2019-05-22T11:19:03.911Z,15.72
2019-05-22T11:21:34.449Z,17.65
2019-05-22T11:24:03.786Z,18.75
2019-05-22T11:26:32.971Z,17.48
2019-05-22T11:29:04.806Z,17.25
2019-05-22T11:31:33.355Z,17.52
2019-05-22T11:34:01.840Z,15.45
2019-05-22T11:36:32.445Z,15.72
2019-05-22T11:39:00.971Z,16.17
2019-05-22T11:41:30.316Z,16.37
2019-05-22T11:43:58.773Z,15.80
2019-05-22T11:46:27.239Z,16.75
2019-05-22T11:48:55.778Z,16.15
2019-05-22T11:51:24.178Z,16.27
2019-05-22T11:54:08.173Z,16.80
2019-05-22T11:56:22.967Z,16.70
2019-05-22T11:58:51.399Z,16.85
2019-05-22T12:01:19.972Z,15.30
2019-05-22T12:03:49.895Z,15.88
2019-05-22T12:06:18.433Z,15.83
2019-05-22T12:08:49.607Z,15.93
2019-05-22T12:11:20.293Z,14.75
2019-05-22T12:13:48.822Z,14.68
2019-05-22T12:16:18.955Z,15.25
2019-05-22T12:18:48.784Z,16.00
2019-05-22T12:21:17.190Z,14.35
2019-05-22T12:23:46.632Z,14.60
2019-05-22T12:26:15.099Z,14.93
2019-05-22T12:28:44.436Z,13.75
2019-05-22T12:31:14.512Z,14.38
2019-05-22T12:33:44.045Z,16.32
2019-05-22T12:36:15.413Z,14.75
2019-05-22T12:38:45.539Z,13.45
2019-05-22T12:41:18.722Z,13.43
2019-05-22T12:43:47.997Z,13.43
2019-05-22T12:46:19.631Z,13.88
2019-05-22T12:48:48.081Z,14.13
2019-05-22T12:51:16.822Z,12.68
2019-05-22T12:53:48.278Z,13.60
2019-05-22T12:56:19.049Z,13.08
2019-05-22T12:58:50.296Z,13.88
2019-05-22T13:01:21.203Z,13.72
2019-05-22T13:03:51.345Z,14.13
2019-05-22T13:06:22.445Z,13.50
2019-05-22T13:08:53.209Z,14.25
2019-05-22T13:11:23.637Z,13.98
2019-05-22T13:13:52.072Z,15.68
2019-05-22T13:16:23.198Z,12.58
2019-05-22T13:18:53.586Z,14.80
2019-05-22T13:21:25.489Z,15.50
2019-05-22T13:23:54.424Z,14.47
2019-05-22T13:26:25.588Z,15.25
2019-05-22T13:28:57.085Z,14.00
2019-05-22T13:31:27.729Z,14.30
2019-05-22T13:33:59.262Z,14.83
2019-05-22T13:36:28.634Z,14.35
2019-05-22T13:38:57.113Z,13.72
2019-05-22T13:41:26.654Z,12.75
2019-05-22T13:43:55.524Z,13.05
2019-05-22T13:46:23.991Z,12.05
2019-05-22T13:48:52.468Z,12.47
2019-05-22T13:51:21.782Z,13.72
2019-05-22T13:53:52.810Z,12.10
2019-05-22T13:56:25.346Z,11.78
2019-05-22T13:58:52.701Z,11.53
2019-05-22T14:01:21.580Z,11.78
2019-05-22T14:03:51.686Z,12.25
2019-05-22T14:06:20.842Z,11.97
2019-05-22T14:08:49.385Z,12.60
2019-05-22T14:11:20.425Z,13.62
2019-05-22T14:13:50.658Z,16.25
2019-05-22T14:16:21.361Z,13.03
2019-05-22T14:18:50.717Z,11.12
2019-05-22T14:21:20.277Z,12.00
2019-05-22T14:23:48.748Z,11.88
2019-05-22T14:26:17.286Z,14.38
2019-05-22T14:28:47.562Z,13.60
2019-05-22T14:31:15.957Z,13.07
2019-05-22T14:33:44.424Z,14.60
2019-05-22T14:36:12.825Z,13.58
2019-05-22T14:38:41.435Z,13.57
2019-05-22T14:41:10.897Z,14.28
2019-05-22T14:43:39.294Z,15.17
2019-05-22T14:46:07.858Z,15.30
2019-05-22T14:48:37.729Z,13.55
2019-05-22T14:51:07.285Z,13.13
2019-05-22T14:53:37.517Z,19.17
2019-05-22T14:56:10.952Z,12.45
2019-05-22T14:58:41.873Z,13.10
2019-05-22T15:01:11.423Z,12.82
2019-05-22T15:03:39.883Z,13.95
2019-05-22T15:06:09.538Z,11.40
2019-05-22T15:08:37.973Z,12.43
2019-05-22T15:11:06.376Z,12.35
2019-05-22T15:13:34.849Z,11.22
2019-05-22T15:16:03.313Z,12.75
2019-05-22T15:18:31.931Z,12.53
2019-05-22T15:21:01.973Z,12.58
2019-05-22T15:23:33.367Z,12.73
2019-05-22T15:26:02.597Z,13.25
2019-05-22T15:28:33.088Z,14.33
2019-05-22T15:31:02.913Z,16.35
2019-05-22T15:33:34.716Z,15.48
2019-05-22T15:36:06.805Z,17.55
2019-05-22T15:38:40.375Z,14.70
2019-05-22T15:41:11.375Z,16.52
2019-05-22T15:43:43.042Z,14.93
2019-05-22T15:46:15.917Z,15.13
2019-05-22T15:48:47.421Z,14.20
2019-05-22T15:51:21.237Z,12.98
2019-05-22T15:53:51.557Z,14.87
2019-05-22T15:56:20.096Z,14.07
2019-05-22T15:58:53.368Z,14.35
2019-05-22T16:01:25.262Z,12.93
2019-05-22T16:03:56.090Z,12.28
2019-05-22T16:06:27.062Z,11.88
2019-05-22T16:08:55.605Z,13.15
2019-05-22T16:11:27.488Z,12.88
2019-05-22T16:14:00.975Z,13.13
2019-05-22T16:16:31.514Z,14.28
2019-05-22T16:19:03.053Z,14.58
2019-05-22T16:21:34.632Z,12.63
2019-05-22T16:24:05.657Z,12.23
2019-05-22T16:26:35.746Z,13.60
2019-05-22T16:29:06.881Z,13.38
2019-05-22T16:31:39.556Z,12.18
2019-05-22T16:34:08.693Z,12.75
2019-05-22T16:36:37.241Z,13.85
2019-05-22T16:39:08.632Z,12.55
2019-05-22T16:41:40.132Z,14.23
2019-05-22T16:44:11.200Z,12.78
2019-05-22T16:46:42.654Z,13.55
2019-05-22T16:49:13.433Z,12.30
2019-05-22T16:51:44.978Z,13.90
2019-05-22T16:54:14.909Z,13.33
2019-05-22T16:56:44.981Z,15.87
2019-05-22T16:59:15.023Z,14.27
2019-05-22T17:01:58.591Z,14.50
2019-05-22T17:04:17.303Z,14.10
2019-05-22T17:06:48.250Z,17.43
2019-05-22T17:09:19.243Z,15.03
2019-05-22T17:11:48.586Z,14.53
2019-05-22T17:14:22.158Z,14.63
2019-05-22T17:16:51.594Z,15.73
2019-05-22T17:19:27.153Z,15.73
2019-05-22T17:21:51.130Z,17.10
2019-05-22T17:24:21.663Z,15.47
2019-05-22T17:26:53.089Z,16.13
2019-05-22T17:29:24.185Z,17.00
2019-05-22T17:31:54.548Z,18.47
2019-05-22T17:34:37.378Z,15.53
2019-05-22T17:37:13.618Z,15.90
2019-05-22T17:39:44.708Z,14.97
2019-05-22T17:42:19.204Z,14.10
2019-05-22T17:44:51.566Z,17.30
2019-05-22T17:47:23.657Z,15.50
2019-05-22T17:49:54.371Z,17.23
2019-05-22T17:52:24.261Z,14.60
2019-05-22T17:54:53.428Z,14.03
2019-05-22T17:57:24.040Z,15.83
2019-05-22T17:59:54.194Z,14.87
2019-05-22T18:02:25.097Z,14.83
2019-05-22T18:04:54.442Z,13.87
2019-05-22T18:07:23.116Z,16.17
2019-05-22T18:09:51.630Z,13.60
2019-05-22T18:12:21.871Z,14.00
2019-05-22T18:14:51.901Z,13.57
2019-05-22T18:17:20.421Z,14.80
2019-05-22T18:19:48.813Z,13.50
2019-05-22T18:22:17.205Z,14.20
2019-05-22T18:24:47.124Z,14.20
2019-05-22T18:27:15.606Z,17.13
2019-05-22T18:29:44.135Z,16.07
2019-05-22T18:32:14.238Z,16.00
2019-05-22T18:34:42.635Z,17.03
2019-05-22T18:37:11.061Z,17.23
2019-05-22T18:39:39.725Z,18.03
2019-05-22T18:42:08.333Z,15.93
2019-05-22T18:44:37.566Z,19.60
2019-05-22T18:47:13.425Z,19.67
2019-05-22T18:49:41.821Z,22.77
2019-05-22T18:52:12.659Z,17.67
2019-05-22T18:54:41.133Z,22.10
2019-05-22T18:57:09.988Z,14.20
2019-05-22T18:59:38.467Z,17.70
2019-05-22T19:02:09.358Z,16.53
2019-05-22T19:04:37.998Z,21.37
2019-05-22T19:07:13.422Z,17.17
2019-05-22T19:09:42.683Z,16.97
2019-05-22T19:12:11.221Z,18.20
2019-05-22T19:14:39.833Z,20.03
2019-05-22T19:17:10.077Z,20.43
2019-05-22T19:19:40.154Z,20.70
2019-05-22T19:22:08.565Z,21.10
2019-05-22T19:24:37.063Z,18.60
2019-05-22T19:27:05.595Z,19.13
2019-05-22T19:29:33.985Z,23.60
2019-05-22T19:32:02.525Z,24.93
2019-05-22T19:34:31.073Z,25.57
2019-05-22T19:36:59.465Z,33.83
2019-05-22T19:39:29.445Z,26.27
2019-05-22T19:42:03.543Z,25.93
2019-05-22T19:44:28.033Z,24.80
2019-05-22T19:46:56.647Z,26.90
2019-05-22T19:49:25.433Z,24.93
2019-05-22T19:51:56.433Z,25.03
2019-05-22T19:54:24.910Z,26.27
2019-05-22T19:56:53.357Z,24.43
2019-05-22T19:59:23.541Z,24.10
2019-05-22T20:01:52.286Z,27.57
2019-05-22T20:04:21.898Z,29.00
2019-05-22T20:06:50.317Z,33.97
2019-05-22T20:09:20.344Z,33.53
2019-05-22T20:11:48.806Z,27.50
2019-05-22T20:14:19.114Z,31.03
2019-05-22T20:16:48.290Z,30.60
2019-05-22T20:19:17.726Z,28.43
2019-05-22T20:21:48.701Z,28.13
2019-05-22T20:24:17.275Z,29.17
2019-05-22T20:26:45.726Z,28.20
2019-05-22T20:29:15.360Z,26.63
2019-05-22T20:31:45.333Z,23.80
2019-05-22T20:34:15.427Z,21.10
2019-05-22T20:36:44.793Z,27.03
2019-05-22T20:39:14.901Z,25.87
2019-05-22T20:41:43.365Z,24.67
2019-05-22T20:44:11.947Z,22.30
2019-05-22T20:46:42.197Z,25.83
2019-05-22T20:49:13.210Z,23.07
2019-05-22T20:51:41.749Z,21.37
2019-05-22T20:54:12.842Z,23.20
2019-05-22T20:56:44.437Z,23.10
2019-05-22T20:59:12.821Z,26.67
2019-05-22T21:01:41.311Z,28.40
2019-05-22T21:04:14.441Z,26.60
2019-05-22T21:06:51.761Z,24.83
2019-05-22T21:09:22.070Z,25.90
2019-05-22T21:11:50.469Z,23.03
2019-05-22T21:14:21.617Z,26.47
2019-05-22T21:16:50.106Z,26.03
2019-05-22T21:19:18.625Z,25.47
2019-05-22T21:21:48.181Z,24.47
2019-05-22T21:24:18.217Z,25.93
2019-05-22T21:26:46.689Z,26.53
2019-05-22T21:29:15.255Z,24.70
2019-05-22T21:31:47.742Z,24.30
2019-05-22T21:34:17.373Z,22.30
2019-05-22T21:36:45.778Z,22.13
2019-05-22T21:39:16.706Z,27.83
2019-05-22T21:41:45.117Z,22.27
2019-05-22T21:44:13.541Z,24.27
2019-05-22T21:46:43.743Z,24.07
2019-05-22T21:49:14.736Z,22.80
2019-05-22T21:51:43.182Z,22.20
2019-05-22T21:54:13.045Z,21.50
2019-05-22T21:56:43.332Z,22.53
2019-05-22T21:59:11.805Z,23.80
2019-05-22T22:01:55.029Z,23.30
2019-05-22T22:04:29.558Z,21.30
2019-05-22T22:06:59.668Z,20.43
2019-05-22T22:09:29.803Z,19.87
2019-05-22T22:11:59.848Z,21.23
2019-05-22T22:14:28.401Z,21.93
2019-05-22T22:16:56.824Z,25.50
2019-05-22T22:19:26.257Z,23.83
2019-05-22T22:21:57.127Z,23.30
2019-05-22T22:24:27.815Z,27.77
2019-05-22T22:26:58.853Z,21.90
2019-05-22T22:29:27.385Z,21.50
2019-05-22T22:31:58.200Z,20.80
2019-05-22T22:34:29.747Z,24.87
2019-05-22T22:36:59.783Z,22.87
2019-05-22T22:39:30.858Z,23.13
2019-05-22T22:42:00.940Z,22.53
2019-05-22T22:44:29.313Z,23.07
2019-05-22T22:47:03.093Z,22.67
2019-05-22T22:49:32.544Z,22.33
2019-05-22T22:52:01.016Z,22.60
2019-05-22T22:54:31.915Z,20.37
2019-05-22T22:57:00.691Z,17.93
2019-05-22T22:59:29.457Z,19.83
2019-05-22T23:02:01.816Z,18.90
2019-05-22T23:04:33.125Z,22.00
2019-05-22T23:07:05.666Z,19.90
2019-05-22T23:09:37.079Z,19.17
2019-05-22T23:12:07.189Z,19.03
2019-05-22T23:14:40.241Z,21.33
2019-05-22T23:17:11.845Z,18.93
2019-05-22T23:19:40.817Z,21.30
2019-05-22T23:22:09.780Z,18.57
2019-05-22T23:24:40.962Z,18.37
2019-05-22T23:27:13.254Z,21.33
2019-05-22T23:29:44.817Z,20.37
2019-05-22T23:32:16.021Z,17.23
2019-05-22T23:34:47.063Z,18.57
2019-05-22T23:37:18.742Z,16.67
2019-05-22T23:39:50.418Z,21.07
2019-05-22T23:42:23.866Z,20.03
2019-05-22T23:44:57.253Z,20.00
2019-05-22T23:47:27.258Z,18.10
2019-05-22T23:49:57.533Z,22.50
2019-05-22T23:52:27.662Z,20.00
2019-05-22T23:54:57.305Z,18.43
2019-05-22T23:57:27.336Z,17.77
2019-05-22T23:59:58.034Z,19.67
